sensor_id;sensor_type;location;lat;lon;timestamp;temperature;humidity
12922;DHT22;6528;48.086;16.282;2024-01-16T00:00:53;22.70;1.00
12922;DHT22;6528;48.086;16.282;2024-01-16T00:03:20;22.60;1.00
12922;DHT22;6528;48.086;16.282;2024-01-16T00:05:48;22.60;1.00
12922;DHT22;6528;48.086;16.282;2024-01-16T00:08:16;22.60;1.00
12922;DHT22;6528;48.086;16.282;2024-01-16T00:10:43;22.60;1.00
12922;DHT22;6528;48.086;16.282;2024-01-16T00:13:11;22.60;1.00
12922;DHT22;6528;48.086;16.282;2024-01-16T00:15:39;22.60;1.00
12922;DHT22;6528;48.086;16.282;2024-01-16T00:18:08;22.70;1.00
12922;DHT22;6528;48.086;16.282;2024-01-16T00:20:36;22.60;1.30
12922;DHT22;6528;48.086;16.282;2024-01-16T00:23:04;22.60;1.40
12922;DHT22;6528;48.086;16.282;2024-01-16T00:25:32;22.60;1.70
12922;DHT22;6528;48.086;16.282;2024-01-16T00:27:59;22.60;3.10
12922;DHT22;6528;48.086;16.282;2024-01-16T00:30:29;22.70;3.60
12922;DHT22;6528;48.086;16.282;2024-01-16T00:32:57;22.60;4.20
12922;DHT22;6528;48.086;16.282;2024-01-16T00:35:24;22.70;4.90
12922;DHT22;6528;48.086;16.282;2024-01-16T00:37:52;22.70;5.40
12922;DHT22;6528;48.086;16.282;2024-01-16T00:40:20;22.60;5.50
12922;DHT22;6528;48.086;16.282;2024-01-16T00:42:47;22.70;6.80
12922;DHT22;6528;48.086;16.282;2024-01-16T00:45:15;22.70;6.80
12922;DHT22;6528;48.086;16.282;2024-01-16T00:47:44;22.60;7.50
12922;DHT22;6528;48.086;16.282;2024-01-16T00:50:11;22.60;8.30
12922;DHT22;6528;48.086;16.282;2024-01-16T00:52:39;22.70;8.80
12922;DHT22;6528;48.086;16.282;2024-01-16T00:55:06;22.70;8.50
12922;DHT22;6528;48.086;16.282;2024-01-16T00:57:33;22.60;9.80
12922;DHT22;6528;48.086;16.282;2024-01-16T01:00:01;22.60;10.60
12922;DHT22;6528;48.086;16.282;2024-01-16T01:02:28;22.60;10.40
12922;DHT22;6528;48.086;16.282;2024-01-16T01:04:56;22.60;10.90
12922;DHT22;6528;48.086;16.282;2024-01-16T01:07:23;22.70;11.70
12922;DHT22;6528;48.086;16.282;2024-01-16T01:09:52;22.60;12.00
12922;DHT22;6528;48.086;16.282;2024-01-16T01:12:20;22.70;12.30
12922;DHT22;6528;48.086;16.282;2024-01-16T01:14:47;22.60;12.50
12922;DHT22;6528;48.086;16.282;2024-01-16T01:17:15;22.60;13.20
12922;DHT22;6528;48.086;16.282;2024-01-16T01:19:42;22.60;13.40
12922;DHT22;6528;48.086;16.282;2024-01-16T01:22:10;22.60;13.60
12922;DHT22;6528;48.086;16.282;2024-01-16T01:24:37;22.70;14.50
12922;DHT22;6528;48.086;16.282;2024-01-16T01:27:05;22.60;15.00
12922;DHT22;6528;48.086;16.282;2024-01-16T01:29:33;22.60;14.70
12922;DHT22;6528;48.086;16.282;2024-01-16T01:32:01;22.70;15.20
12922;DHT22;6528;48.086;16.282;2024-01-16T01:34:28;22.60;15.80
12922;DHT22;6528;48.086;16.282;2024-01-16T01:36:55;22.70;16.20
12922;DHT22;6528;48.086;16.282;2024-01-16T01:39:25;22.60;16.80
12922;DHT22;6528;48.086;16.282;2024-01-16T01:41:52;22.60;16.70
12922;DHT22;6528;48.086;16.282;2024-01-16T01:44:21;22.60;17.40
12922;DHT22;6528;48.086;16.282;2024-01-16T01:46:49;22.60;18.50
12922;DHT22;6528;48.086;16.282;2024-01-16T01:49:16;22.60;18.10
12922;DHT22;6528;48.086;16.282;2024-01-16T01:51:44;22.60;18.90
12922;DHT22;6528;48.086;16.282;2024-01-16T01:54:13;22.60;19.30
12922;DHT22;6528;48.086;16.282;2024-01-16T01:56:44;22.60;19.90
12922;DHT22;6528;48.086;16.282;2024-01-16T01:59:12;22.60;20.90
12922;DHT22;6528;48.086;16.282;2024-01-16T02:01:44;22.60;20.70
12922;DHT22;6528;48.086;16.282;2024-01-16T02:04:17;22.60;21.50
12922;DHT22;6528;48.086;16.282;2024-01-16T02:06:45;22.60;22.30
12922;DHT22;6528;48.086;16.282;2024-01-16T02:09:12;22.60;22.60
12922;DHT22;6528;48.086;16.282;2024-01-16T02:11:43;22.60;23.00
12922;DHT22;6528;48.086;16.282;2024-01-16T02:14:10;22.60;24.20
12922;DHT22;6528;48.086;16.282;2024-01-16T02:16:39;22.70;23.60
12922;DHT22;6528;48.086;16.282;2024-01-16T02:19:08;22.70;25.10
12922;DHT22;6528;48.086;16.282;2024-01-16T02:21:46;22.70;24.90
12922;DHT22;6528;48.086;16.282;2024-01-16T02:24:18;22.60;26.50
12922;DHT22;6528;48.086;16.282;2024-01-16T02:26:46;22.70;27.50
12922;DHT22;6528;48.086;16.282;2024-01-16T02:29:14;22.60;27.70
12922;DHT22;6528;48.086;16.282;2024-01-16T02:31:43;22.60;27.40
12922;DHT22;6528;48.086;16.282;2024-01-16T02:34:11;22.60;28.10
12922;DHT22;6528;48.086;16.282;2024-01-16T02:36:39;22.60;28.40
12922;DHT22;6528;48.086;16.282;2024-01-16T02:39:06;22.60;29.20
12922;DHT22;6528;48.086;16.282;2024-01-16T02:41:33;22.60;29.80
12922;DHT22;6528;48.086;16.282;2024-01-16T02:44:01;22.60;29.30
12922;DHT22;6528;48.086;16.282;2024-01-16T02:46:29;22.60;29.90
12922;DHT22;6528;48.086;16.282;2024-01-16T02:48:56;22.60;31.00
12922;DHT22;6528;48.086;16.282;2024-01-16T02:51:23;22.60;31.20
12922;DHT22;6528;48.086;16.282;2024-01-16T02:53:51;22.60;31.30
12922;DHT22;6528;48.086;16.282;2024-01-16T02:56:18;22.60;31.40
12922;DHT22;6528;48.086;16.282;2024-01-16T02:58:46;22.60;32.60
12922;DHT22;6528;48.086;16.282;2024-01-16T03:01:14;22.60;32.70
12922;DHT22;6528;48.086;16.282;2024-01-16T03:03:42;22.60;33.50
12922;DHT22;6528;48.086;16.282;2024-01-16T03:06:20;22.60;34.10
12922;DHT22;6528;48.086;16.282;2024-01-16T03:08:48;22.60;34.10
12922;DHT22;6528;48.086;16.282;2024-01-16T03:11:15;22.60;34.70
12922;DHT22;6528;48.086;16.282;2024-01-16T03:13:43;22.60;34.60
12922;DHT22;6528;48.086;16.282;2024-01-16T03:16:11;22.60;35.40
12922;DHT22;6528;48.086;16.282;2024-01-16T03:18:38;22.60;36.00
12922;DHT22;6528;48.086;16.282;2024-01-16T03:21:06;22.60;36.50
12922;DHT22;6528;48.086;16.282;2024-01-16T03:23:33;22.60;37.10
12922;DHT22;6528;48.086;16.282;2024-01-16T03:26:01;22.60;37.40
12922;DHT22;6528;48.086;16.282;2024-01-16T03:28:31;22.60;38.30
12922;DHT22;6528;48.086;16.282;2024-01-16T03:30:58;22.60;37.60
12922;DHT22;6528;48.086;16.282;2024-01-16T03:33:25;22.60;38.30
12922;DHT22;6528;48.086;16.282;2024-01-16T03:35:53;22.60;38.40
12922;DHT22;6528;48.086;16.282;2024-01-16T03:38:21;22.60;38.70
12922;DHT22;6528;48.086;16.282;2024-01-16T03:40:48;22.60;39.40
12922;DHT22;6528;48.086;16.282;2024-01-16T03:43:15;22.60;39.00
12922;DHT22;6528;48.086;16.282;2024-01-16T03:45:43;22.60;39.70
12922;DHT22;6528;48.086;16.282;2024-01-16T03:48:11;22.60;40.00
12922;DHT22;6528;48.086;16.282;2024-01-16T03:50:38;22.60;41.60
12922;DHT22;6528;48.086;16.282;2024-01-16T03:53:11;22.60;40.60
12922;DHT22;6528;48.086;16.282;2024-01-16T03:55:38;22.60;41.10
12922;DHT22;6528;48.086;16.282;2024-01-16T03:58:06;22.60;42.30
12922;DHT22;6528;48.086;16.282;2024-01-16T04:00:37;22.60;41.80
12922;DHT22;6528;48.086;16.282;2024-01-16T04:03:05;22.60;41.90
12922;DHT22;6528;48.086;16.282;2024-01-16T04:05:34;22.60;41.80
12922;DHT22;6528;48.086;16.282;2024-01-16T04:08:02;22.60;42.60
12922;DHT22;6528;48.086;16.282;2024-01-16T04:10:30;22.60;43.40
12922;DHT22;6528;48.086;16.282;2024-01-16T04:13:00;22.60;43.70
12922;DHT22;6528;48.086;16.282;2024-01-16T04:15:28;22.60;43.80
12922;DHT22;6528;48.086;16.282;2024-01-16T04:17:56;22.60;44.80
12922;DHT22;6528;48.086;16.282;2024-01-16T04:20:23;22.60;44.50
12922;DHT22;6528;48.086;16.282;2024-01-16T04:22:51;22.60;44.40
12922;DHT22;6528;48.086;16.282;2024-01-16T04:25:19;22.60;45.20
12922;DHT22;6528;48.086;16.282;2024-01-16T04:27:46;22.60;44.70
12922;DHT22;6528;48.086;16.282;2024-01-16T04:30:14;22.60;45.80
12922;DHT22;6528;48.086;16.282;2024-01-16T04:32:41;22.60;45.40
12922;DHT22;6528;48.086;16.282;2024-01-16T04:35:09;22.60;47.10
12922;DHT22;6528;48.086;16.282;2024-01-16T04:37:37;22.60;46.60
12922;DHT22;6528;48.086;16.282;2024-01-16T04:40:05;22.60;47.90
12922;DHT22;6528;48.086;16.282;2024-01-16T04:42:33;22.50;47.30
12922;DHT22;6528;48.086;16.282;2024-01-16T04:45:01;22.60;48.30
12922;DHT22;6528;48.086;16.282;2024-01-16T04:47:28;22.60;48.20
12922;DHT22;6528;48.086;16.282;2024-01-16T04:49:56;22.60;48.80
12922;DHT22;6528;48.086;16.282;2024-01-16T04:52:24;22.60;48.90
12922;DHT22;6528;48.086;16.282;2024-01-16T04:54:51;22.60;49.10
12922;DHT22;6528;48.086;16.282;2024-01-16T04:57:20;22.60;49.40
12922;DHT22;6528;48.086;16.282;2024-01-16T04:59:47;22.50;49.50
12922;DHT22;6528;48.086;16.282;2024-01-16T05:02:14;22.60;50.00
12922;DHT22;6528;48.086;16.282;2024-01-16T05:04:44;22.60;50.50
12922;DHT22;6528;48.086;16.282;2024-01-16T05:07:12;22.60;50.90
12922;DHT22;6528;48.086;16.282;2024-01-16T05:09:40;22.60;52.10
12922;DHT22;6528;48.086;16.282;2024-01-16T05:12:07;22.60;51.40
12922;DHT22;6528;48.086;16.282;2024-01-16T05:14:35;22.60;52.90
12922;DHT22;6528;48.086;16.282;2024-01-16T05:17:02;22.60;52.40
12922;DHT22;6528;48.086;16.282;2024-01-16T05:19:30;22.60;53.50
12922;DHT22;6528;48.086;16.282;2024-01-16T05:21:58;22.60;52.90
12922;DHT22;6528;48.086;16.282;2024-01-16T05:24:25;22.60;54.00
12922;DHT22;6528;48.086;16.282;2024-01-16T05:26:52;22.60;55.70
12922;DHT22;6528;48.086;16.282;2024-01-16T05:29:20;22.60;53.90
12922;DHT22;6528;48.086;16.282;2024-01-16T05:31:47;22.60;53.90
12922;DHT22;6528;48.086;16.282;2024-01-16T05:34:15;22.60;55.30
12922;DHT22;6528;48.086;16.282;2024-01-16T05:36:43;22.60;54.80
12922;DHT22;6528;48.086;16.282;2024-01-16T05:39:11;22.60;56.30
12922;DHT22;6528;48.086;16.282;2024-01-16T05:41:38;22.60;56.00
12922;DHT22;6528;48.086;16.282;2024-01-16T05:44:06;22.60;56.90
12922;DHT22;6528;48.086;16.282;2024-01-16T05:46:33;22.60;56.70
12922;DHT22;6528;48.086;16.282;2024-01-16T05:49:01;22.60;57.10
12922;DHT22;6528;48.086;16.282;2024-01-16T05:51:29;22.60;57.40
12922;DHT22;6528;48.086;16.282;2024-01-16T05:53:57;22.60;58.10
12922;DHT22;6528;48.086;16.282;2024-01-16T05:56:24;22.60;58.40
12922;DHT22;6528;48.086;16.282;2024-01-16T05:58:52;22.60;59.20
12922;DHT22;6528;48.086;16.282;2024-01-16T06:01:19;22.60;59.10
12922;DHT22;6528;48.086;16.282;2024-01-16T06:03:47;22.60;59.40
12922;DHT22;6528;48.086;16.282;2024-01-16T06:06:16;22.60;61.90
12922;DHT22;6528;48.086;16.282;2024-01-16T06:08:44;22.60;60.90
12922;DHT22;6528;48.086;16.282;2024-01-16T06:11:12;22.60;61.40
12922;DHT22;6528;48.086;16.282;2024-01-16T06:13:41;22.60;62.00
12922;DHT22;6528;48.086;16.282;2024-01-16T06:16:08;22.60;63.40
12922;DHT22;6528;48.086;16.282;2024-01-16T06:18:36;22.60;62.90
12922;DHT22;6528;48.086;16.282;2024-01-16T06:21:04;22.60;64.30
12922;DHT22;6528;48.086;16.282;2024-01-16T06:23:31;22.60;64.50
12922;DHT22;6528;48.086;16.282;2024-01-16T06:26:00;22.60;65.40
12922;DHT22;6528;48.086;16.282;2024-01-16T06:28:27;22.60;65.50
12922;DHT22;6528;48.086;16.282;2024-01-16T06:30:55;22.60;66.00
12922;DHT22;6528;48.086;16.282;2024-01-16T06:33:22;22.70;67.10
12922;DHT22;6528;48.086;16.282;2024-01-16T06:35:50;22.70;67.70
12922;DHT22;6528;48.086;16.282;2024-01-16T06:38:20;22.70;70.30
12922;DHT22;6528;48.086;16.282;2024-01-16T06:40:48;22.70;69.40
12922;DHT22;6528;48.086;16.282;2024-01-16T06:43:15;22.70;70.70
12922;DHT22;6528;48.086;16.282;2024-01-16T06:45:43;22.70;71.50
12922;DHT22;6528;48.086;16.282;2024-01-16T06:48:11;22.70;71.50
12922;DHT22;6528;48.086;16.282;2024-01-16T06:50:39;22.70;72.30
12922;DHT22;6528;48.086;16.282;2024-01-16T06:53:06;22.70;72.80
12922;DHT22;6528;48.086;16.282;2024-01-16T06:55:34;22.80;73.90
12922;DHT22;6528;48.086;16.282;2024-01-16T06:58:01;22.80;74.80
12922;DHT22;6528;48.086;16.282;2024-01-16T07:00:28;22.70;76.60
12922;DHT22;6528;48.086;16.282;2024-01-16T07:02:56;22.80;76.10
12922;DHT22;6528;48.086;16.282;2024-01-16T07:05:24;22.80;77.60
12922;DHT22;6528;48.086;16.282;2024-01-16T07:07:51;22.90;83.10
12922;DHT22;6528;48.086;16.282;2024-01-16T07:10:19;22.90;90.80
12922;DHT22;6528;48.086;16.282;2024-01-16T07:12:49;23.00;94.50
12922;DHT22;6528;48.086;16.282;2024-01-16T07:15:18;23.10;99.10
12922;DHT22;6528;48.086;16.282;2024-01-16T07:17:46;23.10;99.90
12922;DHT22;6528;48.086;16.282;2024-01-16T07:20:14;23.20;99.90
12922;DHT22;6528;48.086;16.282;2024-01-16T07:22:41;23.20;99.90
12922;DHT22;6528;48.086;16.282;2024-01-16T07:25:09;23.20;99.90
12922;DHT22;6528;48.086;16.282;2024-01-16T07:27:37;23.30;99.90
12922;DHT22;6528;48.086;16.282;2024-01-16T07:30:05;23.30;99.90
12922;DHT22;6528;48.086;16.282;2024-01-16T07:32:33;23.30;99.90
12922;DHT22;6528;48.086;16.282;2024-01-16T07:35:02;23.30;99.90
12922;DHT22;6528;48.086;16.282;2024-01-16T07:37:30;23.40;99.90
12922;DHT22;6528;48.086;16.282;2024-01-16T07:39:57;23.40;99.90
12922;DHT22;6528;48.086;16.282;2024-01-16T09:13:38;23.40;99.90
12922;DHT22;6528;48.086;16.282;2024-01-16T09:16:05;24.50;99.90
12922;DHT22;6528;48.086;16.282;2024-01-16T09:18:32;24.50;99.90
12922;DHT22;6528;48.086;16.282;2024-01-16T09:21:01;24.50;99.90
12922;DHT22;6528;48.086;16.282;2024-01-16T09:23:29;24.50;99.90
12922;DHT22;6528;48.086;16.282;2024-01-16T09:25:57;24.50;99.90
12922;DHT22;6528;48.086;16.282;2024-01-16T09:28:24;24.50;99.90
12922;DHT22;6528;48.086;16.282;2024-01-16T09:30:52;24.60;99.90
12922;DHT22;6528;48.086;16.282;2024-01-16T09:33:19;24.60;99.90
12922;DHT22;6528;48.086;16.282;2024-01-16T09:35:47;24.60;99.90
12922;DHT22;6528;48.086;16.282;2024-01-16T09:38:15;24.60;99.90
12922;DHT22;6528;48.086;16.282;2024-01-16T09:40:42;24.60;99.90
12922;DHT22;6528;48.086;16.282;2024-01-16T09:43:13;24.70;99.90
12922;DHT22;6528;48.086;16.282;2024-01-16T09:45:41;24.70;99.90
12922;DHT22;6528;48.086;16.282;2024-01-16T09:48:09;24.70;99.90
12922;DHT22;6528;48.086;16.282;2024-01-16T09:50:37;24.80;99.90
12922;DHT22;6528;48.086;16.282;2024-01-16T09:53:05;24.80;99.90
12922;DHT22;6528;48.086;16.282;2024-01-16T09:55:32;24.80;99.90
12922;DHT22;6528;48.086;16.282;2024-01-16T09:58:00;24.80;99.90
12922;DHT22;6528;48.086;16.282;2024-01-16T10:00:31;24.80;99.90
12922;DHT22;6528;48.086;16.282;2024-01-16T10:02:59;24.90;99.90
12922;DHT22;6528;48.086;16.282;2024-01-16T10:05:27;24.90;99.90
12922;DHT22;6528;48.086;16.282;2024-01-16T10:07:58;24.80;99.90
12922;DHT22;6528;48.086;16.282;2024-01-16T10:10:25;24.80;99.90
12922;DHT22;6528;48.086;16.282;2024-01-16T10:13:13;24.80;99.90
12922;DHT22;6528;48.086;16.282;2024-01-16T10:15:41;24.80;99.90
12922;DHT22;6528;48.086;16.282;2024-01-16T10:18:22;24.70;99.90
12922;DHT22;6528;48.086;16.282;2024-01-16T10:20:53;24.70;99.90
12922;DHT22;6528;48.086;16.282;2024-01-16T10:23:32;24.70;99.90
12922;DHT22;6528;48.086;16.282;2024-01-16T10:28:38;24.60;99.90
12922;DHT22;6528;48.086;16.282;2024-01-16T10:31:10;24.70;99.90
12922;DHT22;6528;48.086;16.282;2024-01-16T10:33:39;24.60;99.90
12922;DHT22;6528;48.086;16.282;2024-01-16T10:36:14;24.60;99.90
12922;DHT22;6528;48.086;16.282;2024-01-16T10:38:44;24.60;99.90
12922;DHT22;6528;48.086;16.282;2024-01-16T10:41:17;24.60;99.90
12922;DHT22;6528;48.086;16.282;2024-01-16T10:43:45;24.60;99.90
12922;DHT22;6528;48.086;16.282;2024-01-16T10:48:44;24.60;99.90
12922;DHT22;6528;48.086;16.282;2024-01-16T10:51:17;24.50;99.90
12922;DHT22;6528;48.086;16.282;2024-01-16T10:53:45;24.50;99.90
12922;DHT22;6528;48.086;16.282;2024-01-16T10:56:17;24.50;99.90
12922;DHT22;6528;48.086;16.282;2024-01-16T10:58:52;24.50;99.90
12922;DHT22;6528;48.086;16.282;2024-01-16T11:01:22;24.40;99.90
12922;DHT22;6528;48.086;16.282;2024-01-16T11:03:50;24.40;99.90
12922;DHT22;6528;48.086;16.282;2024-01-16T11:06:20;24.40;99.90
12922;DHT22;6528;48.086;16.282;2024-01-16T11:08:48;24.40;99.90
12922;DHT22;6528;48.086;16.282;2024-01-16T11:11:17;24.40;99.90
12922;DHT22;6528;48.086;16.282;2024-01-16T11:13:46;24.40;99.90
12922;DHT22;6528;48.086;16.282;2024-01-16T11:16:14;24.40;99.90
12922;DHT22;6528;48.086;16.282;2024-01-16T11:18:41;24.30;99.90
12922;DHT22;6528;48.086;16.282;2024-01-16T11:21:15;24.30;99.90
12922;DHT22;6528;48.086;16.282;2024-01-16T11:23:45;24.30;99.90
12922;DHT22;6528;48.086;16.282;2024-01-16T11:26:30;24.30;99.90
12922;DHT22;6528;48.086;16.282;2024-01-16T11:31:56;24.30;99.90
12922;DHT22;6528;48.086;16.282;2024-01-16T11:37:12;24.30;99.90
12922;DHT22;6528;48.086;16.282;2024-01-16T11:39:40;24.20;99.90
12922;DHT22;6528;48.086;16.282;2024-01-16T11:42:08;24.20;99.90
12922;DHT22;6528;48.086;16.282;2024-01-16T11:44:47;24.20;99.90
12922;DHT22;6528;48.086;16.282;2024-01-16T11:47:23;24.20;99.90
12922;DHT22;6528;48.086;16.282;2024-01-16T11:50:07;24.20;99.90
12922;DHT22;6528;48.086;16.282;2024-01-16T11:52:45;24.20;99.90
12922;DHT22;6528;48.086;16.282;2024-01-16T12:00:50;24.00;99.90
12922;DHT22;6528;48.086;16.282;2024-01-16T12:03:22;24.00;99.90
12922;DHT22;6528;48.086;16.282;2024-01-16T12:06:01;24.00;99.90
12922;DHT22;6528;48.086;16.282;2024-01-16T12:08:30;24.00;99.90
12922;DHT22;6528;48.086;16.282;2024-01-16T12:10:58;24.00;99.90
12922;DHT22;6528;48.086;16.282;2024-01-16T12:13:29;24.00;99.90
12922;DHT22;6528;48.086;16.282;2024-01-16T12:16:01;24.00;99.90
12922;DHT22;6528;48.086;16.282;2024-01-16T12:18:29;23.90;99.90
12922;DHT22;6528;48.086;16.282;2024-01-16T12:21:10;24.00;99.90
12922;DHT22;6528;48.086;16.282;2024-01-16T12:23:39;24.00;99.90
12922;DHT22;6528;48.086;16.282;2024-01-16T12:26:22;23.90;99.90
12922;DHT22;6528;48.086;16.282;2024-01-16T12:28:52;23.90;99.90
12922;DHT22;6528;48.086;16.282;2024-01-16T12:31:26;23.90;99.90
12922;DHT22;6528;48.086;16.282;2024-01-16T12:34:14;23.90;99.90
12922;DHT22;6528;48.086;16.282;2024-01-16T12:36:42;23.90;99.90
12922;DHT22;6528;48.086;16.282;2024-01-16T12:39:12;23.90;99.90
12922;DHT22;6528;48.086;16.282;2024-01-16T12:41:42;23.90;99.90
12922;DHT22;6528;48.086;16.282;2024-01-16T12:44:11;23.80;99.90
12922;DHT22;6528;48.086;16.282;2024-01-16T12:46:54;23.80;99.90
12922;DHT22;6528;48.086;16.282;2024-01-16T12:49:23;23.80;99.90
12922;DHT22;6528;48.086;16.282;2024-01-16T12:52:16;23.80;99.90
12922;DHT22;6528;48.086;16.282;2024-01-16T12:54:45;23.80;99.90
12922;DHT22;6528;48.086;16.282;2024-01-16T12:57:22;23.80;99.90
12922;DHT22;6528;48.086;16.282;2024-01-16T12:59:50;23.80;99.90
12922;DHT22;6528;48.086;16.282;2024-01-16T13:02:23;23.70;99.90
12922;DHT22;6528;48.086;16.282;2024-01-16T13:04:59;23.70;99.90
12922;DHT22;6528;48.086;16.282;2024-01-16T13:07:27;23.70;99.90
12922;DHT22;6528;48.086;16.282;2024-01-16T13:10:12;23.70;99.90
12922;DHT22;6528;48.086;16.282;2024-01-16T13:12:43;23.70;99.90
12922;DHT22;6528;48.086;16.282;2024-01-16T13:15:10;23.60;99.90
12922;DHT22;6528;48.086;16.282;2024-01-16T13:17:38;23.60;99.90
12922;DHT22;6528;48.086;16.282;2024-01-16T13:20:06;23.60;99.90
12922;DHT22;6528;48.086;16.282;2024-01-16T13:22:37;23.60;99.90
12922;DHT22;6528;48.086;16.282;2024-01-16T13:25:13;23.60;99.90
12922;DHT22;6528;48.086;16.282;2024-01-16T13:27:41;23.60;99.90
12922;DHT22;6528;48.086;16.282;2024-01-16T13:30:09;23.60;99.90
12922;DHT22;6528;48.086;16.282;2024-01-16T13:32:38;23.60;99.90
12922;DHT22;6528;48.086;16.282;2024-01-16T13:35:05;23.60;99.90
12922;DHT22;6528;48.086;16.282;2024-01-16T13:37:36;23.50;99.90
12922;DHT22;6528;48.086;16.282;2024-01-16T13:40:08;23.50;99.90
12922;DHT22;6528;48.086;16.282;2024-01-16T13:42:39;23.50;99.90
12922;DHT22;6528;48.086;16.282;2024-01-16T13:45:07;23.50;99.90
12922;DHT22;6528;48.086;16.282;2024-01-16T13:47:35;23.50;99.90
12922;DHT22;6528;48.086;16.282;2024-01-16T13:50:08;23.50;99.90
12922;DHT22;6528;48.086;16.282;2024-01-16T13:52:36;23.50;99.90
12922;DHT22;6528;48.086;16.282;2024-01-16T13:55:04;23.50;99.90
12922;DHT22;6528;48.086;16.282;2024-01-16T13:57:33;23.50;99.90
12922;DHT22;6528;48.086;16.282;2024-01-16T14:00:05;23.50;99.90
12922;DHT22;6528;48.086;16.282;2024-01-16T14:02:33;23.40;99.90
12922;DHT22;6528;48.086;16.282;2024-01-16T14:05:11;23.40;99.90
12922;DHT22;6528;48.086;16.282;2024-01-16T14:07:42;23.40;99.90
12922;DHT22;6528;48.086;16.282;2024-01-16T14:10:16;23.40;99.90
12922;DHT22;6528;48.086;16.282;2024-01-16T14:12:45;23.40;99.90
12922;DHT22;6528;48.086;16.282;2024-01-16T14:15:14;23.30;99.90
12922;DHT22;6528;48.086;16.282;2024-01-16T14:17:55;23.30;99.90
12922;DHT22;6528;48.086;16.282;2024-01-16T14:20:24;23.30;99.90
12922;DHT22;6528;48.086;16.282;2024-01-16T14:22:55;23.30;99.90
12922;DHT22;6528;48.086;16.282;2024-01-16T14:25:23;23.30;99.90
12922;DHT22;6528;48.086;16.282;2024-01-16T14:28:01;23.30;99.90
12922;DHT22;6528;48.086;16.282;2024-01-16T14:30:38;23.30;99.90
12922;DHT22;6528;48.086;16.282;2024-01-16T14:33:09;23.30;99.90
12922;DHT22;6528;48.086;16.282;2024-01-16T14:35:37;23.30;99.90
12922;DHT22;6528;48.086;16.282;2024-01-16T14:38:05;23.30;99.90
12922;DHT22;6528;48.086;16.282;2024-01-16T14:40:33;23.30;99.90
12922;DHT22;6528;48.086;16.282;2024-01-16T14:43:00;23.20;99.90
12922;DHT22;6528;48.086;16.282;2024-01-16T14:45:31;23.20;99.90
12922;DHT22;6528;48.086;16.282;2024-01-16T14:47:58;23.20;99.90
12922;DHT22;6528;48.086;16.282;2024-01-16T14:50:27;23.20;99.90
12922;DHT22;6528;48.086;16.282;2024-01-16T14:52:57;23.20;99.90
12922;DHT22;6528;48.086;16.282;2024-01-16T14:55:25;23.20;99.90
12922;DHT22;6528;48.086;16.282;2024-01-16T14:57:53;23.20;99.90
12922;DHT22;6528;48.086;16.282;2024-01-16T15:00:27;23.20;99.90
12922;DHT22;6528;48.086;16.282;2024-01-16T15:02:55;23.20;99.90
12922;DHT22;6528;48.086;16.282;2024-01-16T15:05:24;23.20;99.90
12922;DHT22;6528;48.086;16.282;2024-01-16T15:07:52;23.10;99.90
12922;DHT22;6528;48.086;16.282;2024-01-16T15:10:20;23.10;99.90
12922;DHT22;6528;48.086;16.282;2024-01-16T15:12:48;23.10;99.90
12922;DHT22;6528;48.086;16.282;2024-01-16T15:15:16;23.10;99.90
12922;DHT22;6528;48.086;16.282;2024-01-16T15:17:44;23.10;99.90
12922;DHT22;6528;48.086;16.282;2024-01-16T15:20:12;23.10;99.90
12922;DHT22;6528;48.086;16.282;2024-01-16T15:22:41;23.10;99.90
12922;DHT22;6528;48.086;16.282;2024-01-16T15:25:13;23.10;99.90
12922;DHT22;6528;48.086;16.282;2024-01-16T15:27:43;23.00;99.90
12922;DHT22;6528;48.086;16.282;2024-01-16T15:30:15;23.00;99.90
12922;DHT22;6528;48.086;16.282;2024-01-16T15:32:42;23.00;99.90
12922;DHT22;6528;48.086;16.282;2024-01-16T15:35:10;23.00;99.90
12922;DHT22;6528;48.086;16.282;2024-01-16T15:37:38;23.00;99.90
12922;DHT22;6528;48.086;16.282;2024-01-16T15:40:06;23.10;99.90
12922;DHT22;6528;48.086;16.282;2024-01-16T15:42:34;23.00;99.90
12922;DHT22;6528;48.086;16.282;2024-01-16T15:45:07;23.00;99.90
12922;DHT22;6528;48.086;16.282;2024-01-16T15:47:35;23.00;99.90
12922;DHT22;6528;48.086;16.282;2024-01-16T15:50:04;23.00;99.90
12922;DHT22;6528;48.086;16.282;2024-01-16T15:52:32;23.00;99.90
12922;DHT22;6528;48.086;16.282;2024-01-16T15:55:00;23.00;99.90
12922;DHT22;6528;48.086;16.282;2024-01-16T15:57:28;23.00;99.90
12922;DHT22;6528;48.086;16.282;2024-01-16T15:59:56;22.90;99.90
12922;DHT22;6528;48.086;16.282;2024-01-16T16:02:23;22.90;99.90
12922;DHT22;6528;48.086;16.282;2024-01-16T16:04:51;22.90;99.90
12922;DHT22;6528;48.086;16.282;2024-01-16T16:07:18;22.90;99.90
12922;DHT22;6528;48.086;16.282;2024-01-16T16:09:47;22.90;99.90
12922;DHT22;6528;48.086;16.282;2024-01-16T16:12:15;22.90;99.90
12922;DHT22;6528;48.086;16.282;2024-01-16T16:14:44;22.90;99.90
12922;DHT22;6528;48.086;16.282;2024-01-16T16:17:12;22.90;99.90
12922;DHT22;6528;48.086;16.282;2024-01-16T16:19:40;22.90;99.90
12922;DHT22;6528;48.086;16.282;2024-01-16T16:22:08;22.90;99.90
12922;DHT22;6528;48.086;16.282;2024-01-16T16:24:36;22.90;99.90
12922;DHT22;6528;48.086;16.282;2024-01-16T16:27:24;22.90;99.90
12922;DHT22;6528;48.086;16.282;2024-01-16T16:29:53;22.90;99.90
12922;DHT22;6528;48.086;16.282;2024-01-16T16:32:23;22.90;99.90
12922;DHT22;6528;48.086;16.282;2024-01-16T16:34:51;22.80;99.90
12922;DHT22;6528;48.086;16.282;2024-01-16T16:37:19;22.80;98.70
12922;DHT22;6528;48.086;16.282;2024-01-16T16:39:47;22.80;98.70
12922;DHT22;6528;48.086;16.282;2024-01-16T16:42:15;22.80;97.30
12922;DHT22;6528;48.086;16.282;2024-01-16T16:44:46;22.80;96.40
12922;DHT22;6528;48.086;16.282;2024-01-16T16:47:13;22.80;95.70
12922;DHT22;6528;48.086;16.282;2024-01-16T16:49:42;22.80;95.60
12922;DHT22;6528;48.086;16.282;2024-01-16T16:52:10;22.80;94.50
12922;DHT22;6528;48.086;16.282;2024-01-16T16:54:38;22.80;94.80
12922;DHT22;6528;48.086;16.282;2024-01-16T16:57:05;22.80;93.90
12922;DHT22;6528;48.086;16.282;2024-01-16T16:59:33;22.80;92.90
12922;DHT22;6528;48.086;16.282;2024-01-16T17:02:00;22.80;93.00
12922;DHT22;6528;48.086;16.282;2024-01-16T17:04:28;22.80;91.50
12922;DHT22;6528;48.086;16.282;2024-01-16T17:06:56;22.80;91.00
12922;DHT22;6528;48.086;16.282;2024-01-16T17:09:25;22.80;90.80
12922;DHT22;6528;48.086;16.282;2024-01-16T17:11:53;22.80;90.30
12922;DHT22;6528;48.086;16.282;2024-01-16T17:14:21;22.80;88.80
12922;DHT22;6528;48.086;16.282;2024-01-16T17:16:48;22.70;87.30
12922;DHT22;6528;48.086;16.282;2024-01-16T17:19:16;22.70;87.20
12922;DHT22;6528;48.086;16.282;2024-01-16T17:21:44;22.70;85.30
12922;DHT22;6528;48.086;16.282;2024-01-16T17:24:11;22.70;84.50
12922;DHT22;6528;48.086;16.282;2024-01-16T17:26:38;22.70;84.30
12922;DHT22;6528;48.086;16.282;2024-01-16T17:29:06;22.70;81.90
12922;DHT22;6528;48.086;16.282;2024-01-16T17:31:34;22.70;80.40